createdAt,value
2018-12-13T00:00:59.984Z,1.30
2018-12-13T00:03:28.297Z,1.30
2018-12-13T00:05:56.647Z,1.30
2018-12-13T00:08:25.002Z,1.40
2018-12-13T00:10:53.330Z,1.30
2018-12-13T00:13:21.691Z,1.30
2018-12-13T00:15:50.016Z,1.30
2018-12-13T00:18:18.333Z,1.30
2018-12-13T00:20:46.831Z,1.20
2018-12-13T00:23:15.420Z,1.20
2018-12-13T00:25:43.725Z,1.20
2018-12-13T00:28:12.104Z,1.20
2018-12-13T00:30:40.438Z,1.30
2018-12-13T00:33:08.729Z,1.30
2018-12-13T00:35:37.095Z,1.30
2018-12-13T00:38:05.419Z,1.30
2018-12-13T00:40:33.845Z,1.30
2018-12-13T00:43:02.221Z,1.30
2018-12-13T00:45:30.562Z,1.30
2018-12-13T00:47:58.898Z,1.30
2018-12-13T00:50:27.206Z,1.30
2018-12-13T00:52:55.735Z,1.30
2018-12-13T00:55:24.063Z,1.30
2018-12-13T00:57:52.369Z,1.30
2018-12-13T01:00:20.693Z,1.30
2018-12-13T01:02:49.056Z,1.30
2018-12-13T01:05:17.366Z,1.30
2018-12-13T01:07:45.690Z,1.30
2018-12-13T01:10:14.162Z,1.30
2018-12-13T01:12:42.550Z,1.30
2018-12-13T01:15:10.951Z,1.30
2018-12-13T01:17:39.273Z,1.30
2018-12-13T01:20:07.609Z,1.30
2018-12-13T01:22:35.926Z,1.30
2018-12-13T01:25:04.279Z,1.30
2018-12-13T01:27:32.638Z,1.20
2018-12-13T01:30:01.006Z,1.20
2018-12-13T01:32:29.290Z,1.20
2018-12-13T01:34:57.842Z,1.20
2018-12-13T01:37:26.207Z,1.20
2018-12-13T01:39:54.626Z,1.20
2018-12-13T01:42:23.286Z,1.20
2018-12-13T01:44:51.675Z,1.10
2018-12-13T01:47:20.008Z,1.20
2018-12-13T01:49:48.298Z,1.10
2018-12-13T01:52:16.765Z,1.10
2018-12-13T01:54:45.102Z,1.10
2018-12-13T01:57:13.472Z,1.10
2018-12-13T01:59:41.756Z,1.00
2018-12-13T02:02:10.064Z,1.10
2018-12-13T02:04:38.371Z,1.10
2018-12-13T02:07:06.760Z,1.00
2018-12-13T02:09:35.155Z,1.00
2018-12-13T02:12:03.466Z,1.00
2018-12-13T02:14:31.789Z,1.00
2018-12-13T02:17:00.122Z,1.00
2018-12-13T02:19:28.433Z,1.00
2018-12-13T02:21:56.765Z,1.00
2018-12-13T02:24:25.099Z,1.00
2018-12-13T02:26:53.465Z,1.00
2018-12-13T02:29:21.796Z,1.00
2018-12-13T02:31:50.152Z,0.90
2018-12-13T02:34:18.436Z,1.00
2018-12-13T02:36:46.764Z,0.90
2018-12-13T02:39:15.627Z,0.90
2018-12-13T02:41:43.898Z,0.90
2018-12-13T02:44:12.380Z,0.90
2018-12-13T02:46:40.695Z,0.90
2018-12-13T02:49:09.301Z,1.00
2018-12-13T02:51:44.142Z,0.90
2018-12-13T02:54:12.480Z,0.90
2018-12-13T02:56:40.970Z,1.00
2018-12-13T02:59:09.587Z,0.90
2018-12-13T03:01:37.898Z,0.90
2018-12-13T03:04:06.249Z,0.90
2018-12-13T03:06:34.575Z,0.90
2018-12-13T03:09:02.914Z,0.90
2018-12-13T03:11:31.287Z,1.00
2018-12-13T03:13:59.652Z,0.90
2018-12-13T03:16:27.983Z,0.90
2018-12-13T03:18:56.377Z,0.90
2018-12-13T03:21:24.676Z,0.90
2018-12-13T03:23:53.131Z,0.90
2018-12-13T03:26:21.862Z,0.90
2018-12-13T03:28:50.176Z,0.90
2018-12-13T03:31:18.516Z,0.90
2018-12-13T03:33:46.829Z,0.90
2018-12-13T03:36:15.151Z,0.90
2018-12-13T03:38:43.486Z,0.90
2018-12-13T03:41:11.770Z,0.90
2018-12-13T03:43:40.197Z,0.90
2018-12-13T03:46:08.614Z,0.90
2018-12-13T03:48:36.923Z,0.90
2018-12-13T03:51:05.384Z,0.90
2018-12-13T03:53:33.711Z,0.80
2018-12-13T03:56:02.024Z,0.80
2018-12-13T03:58:30.315Z,0.80
2018-12-13T04:00:58.794Z,0.80
2018-12-13T04:03:27.130Z,0.80
2018-12-13T04:05:55.476Z,0.80
2018-12-13T04:08:23.768Z,0.80
2018-12-13T04:10:52.132Z,0.80
2018-12-13T04:13:20.684Z,0.80
2018-12-13T04:15:48.972Z,0.80
2018-12-13T04:18:17.362Z,0.80
2018-12-13T04:20:45.801Z,0.80
2018-12-13T04:23:14.160Z,0.80
2018-12-13T04:25:42.509Z,0.80
2018-12-13T04:28:11.102Z,0.80
2018-12-13T04:30:39.433Z,0.80
2018-12-13T04:33:07.763Z,0.80
2018-12-13T04:35:36.099Z,0.80
2018-12-13T04:38:04.409Z,0.90
2018-12-13T04:40:32.737Z,0.90
2018-12-13T04:43:01.043Z,0.90
2018-12-13T04:45:29.350Z,0.90
2018-12-13T04:47:57.875Z,0.90
2018-12-13T04:50:26.177Z,0.90
2018-12-13T04:52:54.644Z,0.80
2018-12-13T04:55:23.050Z,0.80
2018-12-13T04:57:51.528Z,0.80
2018-12-13T05:00:19.862Z,0.80
2018-12-13T05:02:48.213Z,0.80
2018-12-13T05:05:16.698Z,0.90
2018-12-13T05:07:45.037Z,0.90
2018-12-13T05:10:23.557Z,0.90
2018-12-13T05:12:51.906Z,0.90
2018-12-13T05:15:20.437Z,0.90
2018-12-13T05:17:48.717Z,0.90
2018-12-13T05:20:17.089Z,0.90
2018-12-13T05:22:45.476Z,0.90
2018-12-13T05:25:13.822Z,0.90
2018-12-13T05:27:42.135Z,0.90
2018-12-13T05:30:10.642Z,0.90
2018-12-13T05:32:38.973Z,0.90
2018-12-13T05:35:07.343Z,0.90
2018-12-13T05:37:35.690Z,0.90
2018-12-13T05:40:04.143Z,0.90
2018-12-13T05:42:32.461Z,0.90
2018-12-13T05:45:00.785Z,0.90
2018-12-13T05:47:29.115Z,0.90
2018-12-13T05:50:04.553Z,0.90
2018-12-13T05:52:32.851Z,0.90
2018-12-13T05:55:01.159Z,0.90
2018-12-13T05:57:29.526Z,1.00
2018-12-13T05:59:57.852Z,1.00
2018-12-13T06:02:26.165Z,1.00
2018-12-13T06:04:54.499Z,0.90
2018-12-13T06:07:22.987Z,0.90
2018-12-13T06:09:51.308Z,0.90
2018-12-13T06:12:19.731Z,1.00
2018-12-13T06:14:48.060Z,0.90
2018-12-13T06:17:16.398Z,0.90
2018-12-13T06:19:44.916Z,0.90
2018-12-13T06:22:13.254Z,0.90
2018-12-13T06:24:41.539Z,0.90
2018-12-13T06:27:09.867Z,1.00
2018-12-13T06:29:41.804Z,0.90
2018-12-13T06:32:06.647Z,0.90
2018-12-13T06:34:34.934Z,0.90
2018-12-13T06:37:03.256Z,0.90
2018-12-13T06:39:31.684Z,0.90
2018-12-13T06:42:00.006Z,0.90
2018-12-13T06:44:28.392Z,0.90
2018-12-13T06:46:56.786Z,0.90
2018-12-13T06:49:25.126Z,0.90
2018-12-13T06:51:53.623Z,0.90
2018-12-13T06:54:21.990Z,1.00
2018-12-13T06:56:50.294Z,1.00
2018-12-13T06:59:18.652Z,1.00
2018-12-13T07:01:46.991Z,1.00
2018-12-13T07:04:15.358Z,1.00
2018-12-13T07:06:43.703Z,1.00
2018-12-13T07:09:12.007Z,1.00
2018-12-13T07:11:40.332Z,1.00
2018-12-13T07:14:08.683Z,1.00
2018-12-13T07:16:37.076Z,1.00
2018-12-13T07:19:05.404Z,1.00
2018-12-13T07:21:33.791Z,0.90
2018-12-13T07:24:02.108Z,0.90
2018-12-13T07:26:30.445Z,0.90
2018-12-13T07:28:58.877Z,0.90
2018-12-13T07:31:28.796Z,0.90
2018-12-13T07:33:57.202Z,0.90
2018-12-13T07:36:25.851Z,0.90
2018-12-13T07:38:54.189Z,0.90
2018-12-13T07:41:22.498Z,0.90
2018-12-13T07:43:50.826Z,1.00
2018-12-13T07:46:19.176Z,1.00
2018-12-13T07:48:47.502Z,0.90
2018-12-13T07:51:15.985Z,0.90
2018-12-13T07:53:44.480Z,0.90
2018-12-13T07:56:13.143Z,0.90
2018-12-13T07:58:41.511Z,0.90
2018-12-13T08:01:09.831Z,0.90
2018-12-13T08:03:38.206Z,0.90
2018-12-13T08:06:06.637Z,0.90
2018-12-13T08:08:35.068Z,0.90
2018-12-13T08:11:03.425Z,0.90
2018-12-13T08:13:31.823Z,0.90
2018-12-13T08:16:00.241Z,0.80
2018-12-13T08:18:28.659Z,0.80
2018-12-13T08:20:56.990Z,0.80
2018-12-13T08:23:25.368Z,0.80
2018-12-13T08:25:53.697Z,0.80
2018-12-13T08:28:22.038Z,0.80
2018-12-13T08:30:50.377Z,0.80
2018-12-13T08:33:18.691Z,0.80
2018-12-13T08:35:47.224Z,0.80
2018-12-13T08:38:15.640Z,0.80
2018-12-13T08:40:44.242Z,0.80
2018-12-13T08:43:12.662Z,0.80
2018-12-13T08:45:41.010Z,0.80
2018-12-13T08:48:09.342Z,0.80
2018-12-13T08:50:37.665Z,0.80
2018-12-13T08:53:06.027Z,0.80
2018-12-13T08:55:34.459Z,0.80
2018-12-13T08:58:02.831Z,0.80
2018-12-13T09:00:31.571Z,0.80
2018-12-13T09:02:59.924Z,0.80
2018-12-13T09:05:28.376Z,0.90
2018-12-13T09:07:56.701Z,0.90
2018-12-13T09:10:25.085Z,0.90
2018-12-13T09:12:53.440Z,0.90
2018-12-13T09:15:21.775Z,0.90
2018-12-13T09:17:50.071Z,0.90
2018-12-13T09:20:18.423Z,0.90
2018-12-13T09:22:46.985Z,0.90
2018-12-13T09:25:15.311Z,0.90
2018-12-13T09:27:43.710Z,0.90
2018-12-13T09:30:12.156Z,0.90
2018-12-13T09:32:41.548Z,1.00
2018-12-13T09:35:08.988Z,1.00
2018-12-13T09:37:37.466Z,1.00
2018-12-13T09:40:05.961Z,1.00
2018-12-13T09:42:34.442Z,1.00
2018-12-13T09:45:02.767Z,1.00
2018-12-13T09:47:31.340Z,1.00
2018-12-13T09:49:59.682Z,1.00
2018-12-13T09:52:28.155Z,1.10
2018-12-13T09:54:56.834Z,1.10
2018-12-13T09:57:25.835Z,1.10
2018-12-13T09:59:54.212Z,1.10
2018-12-13T10:02:22.640Z,1.10
2018-12-13T10:04:50.981Z,1.20
2018-12-13T10:07:19.314Z,1.20
2018-12-13T10:09:47.722Z,1.20
2018-12-13T10:12:16.051Z,1.20
2018-12-13T10:14:44.410Z,1.20
2018-12-13T10:17:12.754Z,1.20
2018-12-13T10:19:41.155Z,1.20
2018-12-13T10:22:11.874Z,1.20
2018-12-13T10:24:37.885Z,1.20
2018-12-13T10:27:06.209Z,1.20
2018-12-13T10:29:34.555Z,1.20
2018-12-13T10:32:02.897Z,1.20
2018-12-13T10:34:31.977Z,1.20
2018-12-13T10:37:00.385Z,1.20
2018-12-13T10:39:28.865Z,1.20
2018-12-13T10:41:57.135Z,1.20
2018-12-13T10:44:31.150Z,1.30
2018-12-13T10:46:59.456Z,1.30
2018-12-13T10:49:27.750Z,1.30
2018-12-13T10:51:56.074Z,1.30
2018-12-13T10:54:24.526Z,1.40
2018-12-13T10:56:52.944Z,1.40
2018-12-13T10:59:21.351Z,1.40
2018-12-13T11:01:55.119Z,1.40
2018-12-13T11:04:23.468Z,1.40
2018-12-13T11:06:51.780Z,1.40
2018-12-13T11:09:20.191Z,1.40
2018-12-13T11:11:48.487Z,1.40
2018-12-13T11:14:16.813Z,1.40
2018-12-13T11:16:45.187Z,1.40
2018-12-13T11:19:14.310Z,1.40
2018-12-13T11:21:42.753Z,1.40
2018-12-13T11:24:11.127Z,1.50
2018-12-13T11:26:39.423Z,1.50
2018-12-13T11:29:27.318Z,1.50
2018-12-13T11:31:55.758Z,1.50
2018-12-13T11:34:24.112Z,1.40
2018-12-13T11:36:53.066Z,1.40
2018-12-13T11:39:21.360Z,1.40
2018-12-13T11:41:49.685Z,1.40
2018-12-13T11:44:18.034Z,1.40
2018-12-13T11:46:46.357Z,1.40
2018-12-13T11:49:14.720Z,1.30
2018-12-13T11:51:43.102Z,1.30
2018-12-13T11:54:23.885Z,1.30
2018-12-13T11:56:52.463Z,1.30
2018-12-13T11:59:20.874Z,1.30
2018-12-13T12:01:49.291Z,1.30
2018-12-13T12:04:17.569Z,1.30
2018-12-13T12:06:45.886Z,1.30
2018-12-13T12:09:14.256Z,1.30
2018-12-13T12:11:42.608Z,1.30
2018-12-13T12:14:10.911Z,1.30
2018-12-13T12:16:39.274Z,1.30
2018-12-13T12:19:07.861Z,1.20
2018-12-13T12:21:36.218Z,1.30
2018-12-13T12:24:04.662Z,1.20
2018-12-13T12:26:33.005Z,1.30
2018-12-13T12:29:01.298Z,1.30
2018-12-13T12:31:29.648Z,1.30
2018-12-13T12:33:58.029Z,1.30
2018-12-13T12:36:26.504Z,1.30
2018-12-13T12:38:54.933Z,1.30
2018-12-13T12:41:23.234Z,1.30
2018-12-13T12:43:51.689Z,1.30
2018-12-13T12:46:21.211Z,1.20
2018-12-13T12:48:48.461Z,1.20
2018-12-13T12:51:16.826Z,1.20
2018-12-13T12:53:45.136Z,1.20
2018-12-13T12:56:13.570Z,1.20
2018-12-13T12:58:41.985Z,1.20
2018-12-13T13:01:10.281Z,1.20
2018-12-13T13:03:38.859Z,1.20
2018-12-13T13:06:07.258Z,1.10
2018-12-13T13:08:35.578Z,1.10
2018-12-13T13:11:03.974Z,1.20
2018-12-13T13:13:32.519Z,1.10
2018-12-13T13:16:01.158Z,1.10
2018-12-13T13:18:29.572Z,1.20
2018-12-13T13:20:58.372Z,1.10
2018-12-13T13:23:27.051Z,1.10
2018-12-13T13:25:55.401Z,1.20
2018-12-13T13:28:23.720Z,1.10
2018-12-13T13:30:52.078Z,1.10
2018-12-13T13:33:20.403Z,1.10
2018-12-13T13:35:48.771Z,1.10
2018-12-13T13:38:17.207Z,1.10
2018-12-13T13:40:45.651Z,1.10
2018-12-13T13:43:13.967Z,1.10
2018-12-13T13:45:42.551Z,1.00
2018-12-13T13:48:11.170Z,1.00
2018-12-13T13:50:39.520Z,1.00
2018-12-13T13:53:08.111Z,1.00
2018-12-13T13:55:36.426Z,1.00
2018-12-13T13:58:04.845Z,0.90
2018-12-13T14:00:33.861Z,0.90
2018-12-13T14:03:02.223Z,0.90
2018-12-13T14:05:30.590Z,0.90
2018-12-13T14:07:58.969Z,0.90
2018-12-13T14:10:27.327Z,0.90
2018-12-13T14:12:55.983Z,0.90
2018-12-13T14:15:24.188Z,1.00
2018-12-13T14:17:52.785Z,1.00
2018-12-13T14:20:21.088Z,1.00
2018-12-13T14:22:49.562Z,1.00
2018-12-13T14:25:17.897Z,1.00
2018-12-13T14:27:46.257Z,1.00
2018-12-13T14:30:14.586Z,1.00
2018-12-13T14:32:42.979Z,1.00
2018-12-13T14:35:11.426Z,1.00
2018-12-13T14:37:39.747Z,1.00
2018-12-13T14:40:08.077Z,1.00
2018-12-13T14:42:37.053Z,1.00
2018-12-13T14:45:06.015Z,0.90
2018-12-13T14:47:34.351Z,0.90
2018-12-13T14:50:03.142Z,0.90
2018-12-13T14:52:31.454Z,1.00
2018-12-13T14:54:59.759Z,0.90
2018-12-13T14:57:28.136Z,0.90
2018-12-13T14:59:56.479Z,0.90
2018-12-13T15:02:24.831Z,0.90
2018-12-13T15:04:53.210Z,1.00
2018-12-13T15:07:21.536Z,0.90
2018-12-13T15:09:51.003Z,0.90
2018-12-13T15:12:18.267Z,0.90
2018-12-13T15:14:46.604Z,0.90
2018-12-13T15:17:14.935Z,0.90
2018-12-13T15:19:43.435Z,0.90
2018-12-13T15:22:11.966Z,1.00
2018-12-13T15:24:40.517Z,0.90
2018-12-13T15:27:08.831Z,0.90
2018-12-13T15:29:37.568Z,0.90
2018-12-13T15:32:05.877Z,0.90
2018-12-13T15:34:34.195Z,0.90
2018-12-13T15:37:02.575Z,0.90
2018-12-13T15:39:30.955Z,0.90
2018-12-13T15:41:59.310Z,0.90
2018-12-13T15:44:27.776Z,0.90
2018-12-13T15:46:56.076Z,0.90
2018-12-13T15:49:24.406Z,0.90
2018-12-13T15:51:52.747Z,0.80
2018-12-13T15:54:21.144Z,0.80
2018-12-13T15:56:49.457Z,0.90
2018-12-13T15:59:17.830Z,0.90
2018-12-13T16:01:46.308Z,0.80
2018-12-13T16:04:14.629Z,0.90
2018-12-13T16:06:43.225Z,0.90
2018-12-13T16:09:11.565Z,0.80
2018-12-13T16:11:39.867Z,0.80
2018-12-13T16:14:08.249Z,0.80
2018-12-13T16:16:36.545Z,0.80
2018-12-13T16:19:04.851Z,0.80
2018-12-13T16:21:33.229Z,0.80
2018-12-13T16:24:01.580Z,0.80
2018-12-13T16:26:29.880Z,0.80
2018-12-13T16:28:58.331Z,0.80
2018-12-13T16:31:26.643Z,0.80
2018-12-13T16:33:55.059Z,0.80
2018-12-13T16:36:23.493Z,0.80
2018-12-13T16:38:52.102Z,0.80
2018-12-13T16:41:20.423Z,0.70
2018-12-13T16:43:48.762Z,0.70
2018-12-13T16:46:17.589Z,0.70
2018-12-13T16:48:45.985Z,0.70
2018-12-13T16:51:14.425Z,0.70
2018-12-13T16:53:42.730Z,0.70
2018-12-13T16:56:11.116Z,0.70
2018-12-13T16:58:39.434Z,0.70
2018-12-13T17:01:07.790Z,0.70
2018-12-13T17:03:41.456Z,0.70
2018-12-13T17:06:09.804Z,0.70
2018-12-13T17:08:38.186Z,0.70
2018-12-13T17:11:06.571Z,0.60
2018-12-13T17:13:34.969Z,0.60
2018-12-13T17:16:03.443Z,0.70
2018-12-13T17:18:31.789Z,0.70
2018-12-13T17:21:00.157Z,0.70
2018-12-13T17:23:28.443Z,0.70
2018-12-13T17:25:56.847Z,0.70
2018-12-13T17:28:25.263Z,0.70
2018-12-13T17:30:53.577Z,0.70
2018-12-13T17:33:21.897Z,0.70
2018-12-13T17:35:50.232Z,0.70
2018-12-13T17:38:18.647Z,0.70
2018-12-13T17:40:47.118Z,0.70
2018-12-13T17:43:15.453Z,0.70
2018-12-13T17:45:43.927Z,0.70
2018-12-13T17:48:12.429Z,0.60
2018-12-13T17:50:40.909Z,0.60
2018-12-13T17:53:09.277Z,0.60
2018-12-13T17:55:41.808Z,0.60
2018-12-13T17:58:11.916Z,0.60
2018-12-13T18:00:40.233Z,0.60
2018-12-13T18:03:08.577Z,0.60
2018-12-13T18:05:37.037Z,0.60
2018-12-13T18:08:05.361Z,0.60
2018-12-13T18:10:33.708Z,0.60
2018-12-13T18:13:02.002Z,0.60
2018-12-13T18:15:30.305Z,0.50
2018-12-13T18:17:58.848Z,0.60
2018-12-13T18:20:27.191Z,0.60
2018-12-13T18:22:55.504Z,0.50
2018-12-13T18:25:23.846Z,0.50
2018-12-13T18:27:52.187Z,0.50
2018-12-13T18:30:20.496Z,0.50
2018-12-13T18:32:48.800Z,0.50
2018-12-13T18:35:17.159Z,0.50
2018-12-13T18:37:45.451Z,0.50
2018-12-13T18:40:13.979Z,0.50
2018-12-13T18:42:48.864Z,0.40
2018-12-13T18:45:17.393Z,0.40
2018-12-13T18:47:45.740Z,0.40
2018-12-13T18:50:14.593Z,0.40
2018-12-13T18:52:43.048Z,0.40
2018-12-13T18:55:11.423Z,0.40
2018-12-13T18:57:39.952Z,0.40
2018-12-13T19:00:08.697Z,0.40
2018-12-13T19:02:36.998Z,0.30
2018-12-13T19:05:05.465Z,0.30
2018-12-13T19:07:33.783Z,0.40
2018-12-13T19:10:02.199Z,0.40
2018-12-13T19:12:30.462Z,0.40
2018-12-13T19:14:58.811Z,0.40
2018-12-13T19:17:27.192Z,0.30
2018-12-13T19:19:55.564Z,0.30
2018-12-13T19:22:23.913Z,0.40
2018-12-13T19:24:52.494Z,0.30
2018-12-13T19:27:20.869Z,0.30
2018-12-13T19:29:49.234Z,0.30
2018-12-13T19:32:17.589Z,0.30
2018-12-13T19:34:46.018Z,0.40
2018-12-13T19:37:14.442Z,0.30
2018-12-13T19:39:42.789Z,0.40
2018-12-13T19:42:11.133Z,0.40
2018-12-13T19:44:39.474Z,0.40
2018-12-13T19:47:07.829Z,0.40
2018-12-13T19:49:36.249Z,0.40
2018-12-13T19:52:04.952Z,0.40
2018-12-13T19:54:33.267Z,0.40
2018-12-13T19:57:01.606Z,0.40
2018-12-13T19:59:29.928Z,0.40
2018-12-13T20:01:58.392Z,0.40
2018-12-13T20:04:27.057Z,0.40
2018-12-13T20:06:55.386Z,0.40
2018-12-13T20:09:23.704Z,0.40
2018-12-13T20:11:52.297Z,0.30
2018-12-13T20:14:20.636Z,0.30
2018-12-13T20:16:49.136Z,0.30
2018-12-13T20:19:17.719Z,0.40
2018-12-13T20:21:46.383Z,0.30
2018-12-13T20:24:14.779Z,0.40
2018-12-13T20:26:43.320Z,0.30
2018-12-13T20:29:11.656Z,0.30
2018-12-13T20:31:40.016Z,0.30
2018-12-13T20:34:08.602Z,0.30
2018-12-13T20:36:36.983Z,0.30
2018-12-13T20:39:07.208Z,0.30
2018-12-13T20:41:35.799Z,0.30
2018-12-13T20:44:04.121Z,0.30
2018-12-13T20:46:32.643Z,0.30
2018-12-13T20:49:01.014Z,0.30
2018-12-13T20:51:29.410Z,0.30
2018-12-13T20:53:58.246Z,0.30
2018-12-13T20:56:26.657Z,0.30
2018-12-13T20:58:54.989Z,0.30
2018-12-13T21:01:23.362Z,0.30
2018-12-13T21:03:51.903Z,0.30
2018-12-13T21:06:20.258Z,0.30
2018-12-13T21:08:48.651Z,0.30
2018-12-13T21:11:17.413Z,0.30
2018-12-13T21:13:45.784Z,0.30
2018-12-13T21:16:14.072Z,0.30
2018-12-13T21:18:42.381Z,0.30
2018-12-13T21:21:10.827Z,0.20
2018-12-13T21:23:39.149Z,0.20
2018-12-13T21:26:07.590Z,0.20
2018-12-13T21:28:35.956Z,0.20
2018-12-13T21:31:04.355Z,0.20
2018-12-13T21:33:32.797Z,0.20
2018-12-13T21:36:01.265Z,0.20
2018-12-13T21:38:29.617Z,0.20
2018-12-13T21:40:57.961Z,0.20
2018-12-13T21:43:26.383Z,0.20
2018-12-13T21:45:55.129Z,0.20
2018-12-13T21:48:23.757Z,0.20
2018-12-13T21:50:52.333Z,0.20
2018-12-13T21:53:20.985Z,0.20
2018-12-13T21:55:49.975Z,0.20
2018-12-13T21:58:18.306Z,0.20
2018-12-13T22:00:46.732Z,0.20
2018-12-13T22:03:15.327Z,0.10
2018-12-13T22:05:43.620Z,0.10
2018-12-13T22:08:11.923Z,0.10
2018-12-13T22:10:40.299Z,0.10
2018-12-13T22:13:08.679Z,0.10
2018-12-13T22:15:37.006Z,0.10
2018-12-13T22:18:05.355Z,0.10
2018-12-13T22:20:33.764Z,0.10
2018-12-13T22:23:02.130Z,0.00
2018-12-13T22:25:30.490Z,0.00
2018-12-13T22:27:58.809Z,0.00
2018-12-13T22:30:27.259Z,0.00
2018-12-13T22:32:55.626Z,0.10
2018-12-13T22:35:23.949Z,0.00
2018-12-13T22:37:52.277Z,0.10
2018-12-13T22:40:20.679Z,0.10
2018-12-13T22:42:49.018Z,0.10
2018-12-13T22:45:17.376Z,0.10
2018-12-13T22:47:45.690Z,0.10
2018-12-13T22:50:14.097Z,0.10
2018-12-13T22:52:42.636Z,0.10
2018-12-13T22:55:10.961Z,0.10
2018-12-13T22:57:39.897Z,0.10
2018-12-13T23:00:09.025Z,0.10
2018-12-13T23:02:37.393Z,0.10
2018-12-13T23:05:05.825Z,0.10
2018-12-13T23:07:34.236Z,0.10
2018-12-13T23:10:02.542Z,0.10
2018-12-13T23:12:30.840Z,0.10
2018-12-13T23:14:59.247Z,0.10
2018-12-13T23:17:27.560Z,0.10
2018-12-13T23:19:55.905Z,0.10
2018-12-13T23:22:24.421Z,0.10
2018-12-13T23:24:52.807Z,0.10
2018-12-13T23:27:21.132Z,0.10
2018-12-13T23:29:49.570Z,0.10
2018-12-13T23:32:17.878Z,0.10
2018-12-13T23:34:46.308Z,0.10
2018-12-13T23:37:14.782Z,0.10
2018-12-13T23:39:43.223Z,0.10
2018-12-13T23:42:11.750Z,0.10
2018-12-13T23:44:40.093Z,0.10
2018-12-13T23:47:08.411Z,0.10
2018-12-13T23:49:36.773Z,0.10
2018-12-13T23:52:05.232Z,0.10
2018-12-13T23:54:33.604Z,0.10
2018-12-13T23:57:01.969Z,0.10
2018-12-13T23:59:30.588Z,0.10
